Cookies

¿Aceptas nuestras cookies?

Aceptar
VAM | Vabird-VBD

Virtual Vabird! Aerolínea Virtual de habla hispana, desde 2011




 INFORMACIÓN METAR y TAF
METAR FOR LOWI
ADDS - METARS form results

(1244 UTC 03 December 2021)
Data provider http://aviationweather.gov/metar/data/
 
METAR text: LOWI 031220Z VRB02KT 9999 FEW035 04/M07 Q1014 NOSIG
Conditions at: LOWI (INNSBRUCK AIRPOR, AT) observed 1220 UTC 03 December 2021
Temperature: 4.0°C (39°F)
Dewpoint: -7.0°C (19°F) [RH = 44%]
Pressure (altimeter): 29.94 inches Hg (1014.0 mb)
Winds: variable direction winds at 2 MPH (2 knots; 1.0 m/s)
Visibility: 6 or more miles (10+ km)
Ceiling: at least 12,000 feet AGL
Clouds: few clouds at 3500 feet AGL
Weather: no significant weather observed at this time

METAR text: LOWI 031150Z VRB02KT 9999 FEW020 SCT055 03/M07 Q1014 NOSIG
Conditions at: LOWI (INNSBRUCK AIRPOR, AT) observed 1150 UTC 03 December 2021
Temperature: 3.0°C (37°F)
Dewpoint: -7.0°C (19°F) [RH = 48%]
Pressure (altimeter): 29.94 inches Hg (1014.0 mb)
Winds: variable direction winds at 2 MPH (2 knots; 1.0 m/s)
Visibility: 6 or more miles (10+ km)
Ceiling: at least 12,000 feet AGL
Clouds: few clouds at 2000 feet AGL
scattered clouds at 5500 feet AGL
Weather: no significant weather observed at this time

Forecast for: LOWI (INNSBRUCK AIRPOR, AT)
Text: TAF LOWI 031115Z 0312/0412 VRB02KT 9999 FEW040 TX03/0412Z TNM03/0321Z
Forecast period: 1200 to 2200 UTC 03 December 2021
Forecast type: FROM: standard forecast or significant change
Winds: variable direction winds at 2 MPH (2 knots; 1.0 m/s)
Visibility: 6 or more miles (10+ km)
Ceiling: at least 12,000 feet AGL
Clouds: few clouds at 4000 feet AGL
Weather: no significant weather forecast for this period
Text: BECMG 0322/0324 27008KT
Forecast period: 2200 UTC 03 December 2021 to 1200 UTC 04 December 2021
Forecast type: BECOMING: Conditions expected to become as follows by 0000 UTC 04 December 2021
Winds: from the W (270 degrees) at 9 MPH (8 knots; 4.1 m/s)
Visibility: 6 or more miles (10+ km)
Ceiling: at least 12,000 feet AGL
Clouds: few clouds at 4000 feet AGL
Weather: no significant weather forecast for this period

 MAPA DE AEROPUERTO

 INFORMACIÓN DE PISTA